sensor_id;sensor_type;location;lat;lon;timestamp;pressure;altitude;pressure_sealevel;temperature;humidity
77979;BME280;67169;50.268;8.694;2023-07-22T00:02:24;99675.38;;;12.47;89.64
77979;BME280;67169;50.268;8.694;2023-07-22T00:04:50;99672.09;;;12.41;89.82
77979;BME280;67169;50.268;8.694;2023-07-22T00:07:18;99678.00;;;12.30;90.45
77979;BME280;67169;50.268;8.694;2023-07-22T00:09:46;99672.97;;;12.22;91.32
77979;BME280;67169;50.268;8.694;2023-07-22T00:12:15;99675.16;;;12.52;89.47
77979;BME280;67169;50.268;8.694;2023-07-22T00:14:41;99690.78;;;12.06;91.01
77979;BME280;67169;50.268;8.694;2023-07-22T00:17:08;99663.44;;;11.95;91.71
77979;BME280;67169;50.268;8.694;2023-07-22T00:19:35;99655.69;;;11.87;91.84
77979;BME280;67169;50.268;8.694;2023-07-22T00:22:02;99689.41;;;12.16;91.52
77979;BME280;67169;50.268;8.694;2023-07-22T00:24:28;99615.84;;;11.94;90.70
77979;BME280;67169;50.268;8.694;2023-07-22T00:26:57;99679.88;;;12.28;91.01
77979;BME280;67169;50.268;8.694;2023-07-22T00:29:23;99705.19;;;12.25;91.03
77979;BME280;67169;50.268;8.694;2023-07-22T00:31:50;99701.41;;;12.29;91.02
77979;BME280;67169;50.268;8.694;2023-07-22T00:34:17;99678.34;;;12.22;91.13
77979;BME280;67169;50.268;8.694;2023-07-22T00:36:43;99699.53;;;12.11;91.46
77979;BME280;67169;50.268;8.694;2023-07-22T00:39:11;99701.44;;;11.88;91.90
77979;BME280;67169;50.268;8.694;2023-07-22T00:41:39;99698.75;;;11.88;92.15
77979;BME280;67169;50.268;8.694;2023-07-22T00:44:09;99675.44;;;11.67;92.16
77979;BME280;67169;50.268;8.694;2023-07-22T00:46:35;99698.81;;;11.67;92.54
77979;BME280;67169;50.268;8.694;2023-07-22T00:49:02;99649.25;;;11.28;92.99
77979;BME280;67169;50.268;8.694;2023-07-22T00:51:31;99697.13;;;11.42;92.97
77979;BME280;67169;50.268;8.694;2023-07-22T00:53:58;99675.41;;;11.04;92.98
77979;BME280;67169;50.268;8.694;2023-07-22T00:56:24;99697.44;;;11.14;93.84
77979;BME280;67169;50.268;8.694;2023-07-22T00:58:51;99699.44;;;11.09;93.89
77979;BME280;67169;50.268;8.694;2023-07-22T01:01:19;99695.06;;;11.06;94.15
77979;BME280;67169;50.268;8.694;2023-07-22T01:03:46;99701.19;;;11.10;94.12
77979;BME280;67169;50.268;8.694;2023-07-22T01:06:13;99712.09;;;11.07;94.10
77979;BME280;67169;50.268;8.694;2023-07-22T01:08:42;99707.22;;;10.95;94.17
77979;BME280;67169;50.268;8.694;2023-07-22T01:11:09;99705.00;;;10.82;94.14
77979;BME280;67169;50.268;8.694;2023-07-22T01:13:35;99708.53;;;10.84;94.22
77979;BME280;67169;50.268;8.694;2023-07-22T01:16:02;99717.16;;;10.92;94.45
77979;BME280;67169;50.268;8.694;2023-07-22T01:18:30;99718.78;;;10.97;94.01
77979;BME280;67169;50.268;8.694;2023-07-22T01:20:57;99717.97;;;10.95;94.12
77979;BME280;67169;50.268;8.694;2023-07-22T01:23:25;99587.06;;;10.28;94.00
77979;BME280;67169;50.268;8.694;2023-07-22T01:25:52;99723.41;;;10.93;93.88
77979;BME280;67169;50.268;8.694;2023-07-22T01:28:20;99653.31;;;10.52;94.15
77979;BME280;67169;50.268;8.694;2023-07-22T01:30:47;99708.53;;;10.84;94.10
77979;BME280;67169;50.268;8.694;2023-07-22T01:33:14;99692.63;;;10.78;94.08
77979;BME280;67169;50.268;8.694;2023-07-22T01:35:40;99717.47;;;10.85;94.16
77979;BME280;67169;50.268;8.694;2023-07-22T01:38:07;99712.84;;;10.88;94.24
77979;BME280;67169;50.268;8.694;2023-07-22T01:40:35;99715.53;;;10.88;94.04
77979;BME280;67169;50.268;8.694;2023-07-22T01:43:02;99719.97;;;10.89;93.59
77979;BME280;67169;50.268;8.694;2023-07-22T01:45:29;99705.31;;;10.75;93.90
77979;BME280;67169;50.268;8.694;2023-07-22T01:47:55;99600.91;;;10.17;94.14
77979;BME280;67169;50.268;8.694;2023-07-22T01:50:22;99721.03;;;10.85;94.18
77979;BME280;67169;50.268;8.694;2023-07-22T01:52:48;99722.88;;;10.83;94.41
77979;BME280;67169;50.268;8.694;2023-07-22T01:55:15;99677.78;;;10.46;94.50
77979;BME280;67169;50.268;8.694;2023-07-22T01:57:43;99723.91;;;10.81;94.31
77979;BME280;67169;50.268;8.694;2023-07-22T02:00:11;99659.97;;;10.42;94.12
77979;BME280;67169;50.268;8.694;2023-07-22T02:02:37;99714.63;;;10.66;93.99
77979;BME280;67169;50.268;8.694;2023-07-22T02:05:05;99721.16;;;10.59;93.99
77979;BME280;67169;50.268;8.694;2023-07-22T02:07:32;99713.34;;;10.53;94.01
77979;BME280;67169;50.268;8.694;2023-07-22T02:09:59;99647.00;;;10.06;93.77
77979;BME280;67169;50.268;8.694;2023-07-22T02:12:25;99716.75;;;10.34;94.00
77979;BME280;67169;50.268;8.694;2023-07-22T02:14:53;99718.47;;;10.35;93.76
77979;BME280;67169;50.268;8.694;2023-07-22T02:17:20;99736.66;;;10.29;93.71
77979;BME280;67169;50.268;8.694;2023-07-22T02:19:46;99732.28;;;10.26;93.53
77979;BME280;67169;50.268;8.694;2023-07-22T02:22:13;99722.41;;;10.25;93.49
77979;BME280;67169;50.268;8.694;2023-07-22T02:24:40;99729.78;;;10.20;93.73
77979;BME280;67169;50.268;8.694;2023-07-22T02:27:06;99737.03;;;10.18;93.76
77979;BME280;67169;50.268;8.694;2023-07-22T02:29:33;99735.34;;;10.15;93.86
77979;BME280;67169;50.268;8.694;2023-07-22T02:32:02;99740.34;;;10.26;94.26
77979;BME280;67169;50.268;8.694;2023-07-22T02:34:29;99661.16;;;9.86;93.98
77979;BME280;67169;50.268;8.694;2023-07-22T02:36:56;99702.44;;;10.09;93.92
77979;BME280;67169;50.268;8.694;2023-07-22T02:39:23;99728.59;;;10.29;94.32
77979;BME280;67169;50.268;8.694;2023-07-22T02:41:49;99723.16;;;10.30;94.25
77979;BME280;67169;50.268;8.694;2023-07-22T02:44:16;99715.75;;;10.37;94.40
77979;BME280;67169;50.268;8.694;2023-07-22T02:46:42;99734.78;;;10.31;94.34
77979;BME280;67169;50.268;8.694;2023-07-22T02:49:10;99739.22;;;10.32;94.70
77979;BME280;67169;50.268;8.694;2023-07-22T02:51:37;99725.78;;;10.32;94.25
77979;BME280;67169;50.268;8.694;2023-07-22T02:54:03;99729.03;;;10.16;94.26
77979;BME280;67169;50.268;8.694;2023-07-22T02:56:30;99743.66;;;10.08;94.05
77979;BME280;67169;50.268;8.694;2023-07-22T02:58:57;99744.78;;;10.02;94.11
77979;BME280;67169;50.268;8.694;2023-07-22T03:01:23;99699.44;;;9.68;94.01
77979;BME280;67169;50.268;8.694;2023-07-22T03:03:51;99739.13;;;9.85;93.91
77979;BME280;67169;50.268;8.694;2023-07-22T03:06:19;99757.06;;;9.84;93.93
77979;BME280;67169;50.268;8.694;2023-07-22T03:08:45;99751.25;;;9.71;94.09
77979;BME280;67169;50.268;8.694;2023-07-22T03:11:13;99758.31;;;9.74;94.21
77979;BME280;67169;50.268;8.694;2023-07-22T03:13:40;99754.69;;;9.75;94.21
77979;BME280;67169;50.268;8.694;2023-07-22T03:16:07;99748.41;;;9.49;94.72
77979;BME280;67169;50.268;8.694;2023-07-22T03:18:34;99744.81;;;9.50;95.08
77979;BME280;67169;50.268;8.694;2023-07-22T03:21:01;99755.47;;;9.52;94.92
77979;BME280;67169;50.268;8.694;2023-07-22T03:23:29;99751.91;;;9.51;95.04
77979;BME280;67169;50.268;8.694;2023-07-22T03:25:55;99763.06;;;9.39;95.04
77979;BME280;67169;50.268;8.694;2023-07-22T03:28:22;99749.09;;;9.30;95.26
77979;BME280;67169;50.268;8.694;2023-07-22T03:30:51;99744.50;;;9.33;95.42
77979;BME280;67169;50.268;8.694;2023-07-22T03:33:18;99758.44;;;9.44;95.65
77979;BME280;67169;50.268;8.694;2023-07-22T03:35:45;99776.16;;;9.50;96.05
77979;BME280;67169;50.268;8.694;2023-07-22T03:38:12;99781.53;;;9.50;95.97
77979;BME280;67169;50.268;8.694;2023-07-22T03:40:40;99785.94;;;9.51;96.03
77979;BME280;67169;50.268;8.694;2023-07-22T03:43:07;99772.53;;;9.51;96.34
77979;BME280;67169;50.268;8.694;2023-07-22T03:45:34;99771.31;;;9.60;96.09
77979;BME280;67169;50.268;8.694;2023-07-22T03:48:00;99774.06;;;9.58;96.23
77979;BME280;67169;50.268;8.694;2023-07-22T03:50:27;99754.88;;;9.44;96.17
77979;BME280;67169;50.268;8.694;2023-07-22T03:52:54;99712.69;;;9.21;95.93
77979;BME280;67169;50.268;8.694;2023-07-22T03:55:21;99774.75;;;9.65;95.91
77979;BME280;67169;50.268;8.694;2023-07-22T03:57:49;99762.78;;;9.73;95.83
77979;BME280;67169;50.268;8.694;2023-07-22T04:00:16;99767.16;;;9.78;95.76
77979;BME280;67169;50.268;8.694;2023-07-22T04:02:43;99783.59;;;9.67;95.74
77979;BME280;67169;50.268;8.694;2023-07-22T04:05:10;99772.56;;;9.76;95.49
77979;BME280;67169;50.268;8.694;2023-07-22T04:07:37;99751.50;;;9.64;95.43
77979;BME280;67169;50.268;8.694;2023-07-22T04:10:04;99768.03;;;9.78;95.36
77979;BME280;67169;50.268;8.694;2023-07-22T04:12:31;99744.38;;;9.63;95.57
77979;BME280;67169;50.268;8.694;2023-07-22T04:14:59;99727.00;;;9.48;95.48
77979;BME280;67169;50.268;8.694;2023-07-22T04:17:26;99767.50;;;9.67;95.63
77979;BME280;67169;50.268;8.694;2023-07-22T04:19:52;99765.81;;;9.64;95.70
77979;BME280;67169;50.268;8.694;2023-07-22T04:22:19;99742.78;;;9.57;96.03
77979;BME280;67169;50.268;8.694;2023-07-22T04:24:46;99682.47;;;9.16;95.89
77979;BME280;67169;50.268;8.694;2023-07-22T04:27:13;99692.72;;;9.30;95.78
77979;BME280;67169;50.268;8.694;2023-07-22T04:29:40;99763.69;;;9.74;95.99
77979;BME280;67169;50.268;8.694;2023-07-22T04:32:09;99760.63;;;9.85;95.92
77979;BME280;67169;50.268;8.694;2023-07-22T04:34:36;99698.88;;;9.58;95.85
77979;BME280;67169;50.268;8.694;2023-07-22T04:37:03;99763.53;;;10.04;95.76
77979;BME280;67169;50.268;8.694;2023-07-22T04:39:30;99790.00;;;10.14;95.50
77979;BME280;67169;50.268;8.694;2023-07-22T04:41:56;99779.88;;;10.22;95.29
77979;BME280;67169;50.268;8.694;2023-07-22T04:44:23;99795.56;;;10.35;95.12
77979;BME280;67169;50.268;8.694;2023-07-22T04:46:50;99744.16;;;10.19;94.82
77979;BME280;67169;50.268;8.694;2023-07-22T04:49:18;99778.88;;;10.50;94.92
77979;BME280;67169;50.268;8.694;2023-07-22T04:51:45;99788.19;;;10.65;95.07
77979;BME280;67169;50.268;8.694;2023-07-22T04:54:12;99788.53;;;10.79;95.05
77979;BME280;67169;50.268;8.694;2023-07-22T04:56:38;99742.47;;;10.65;94.98
77979;BME280;67169;50.268;8.694;2023-07-22T04:59:05;99779.03;;;10.92;94.16
77979;BME280;67169;50.268;8.694;2023-07-22T05:01:32;99800.81;;;10.86;93.91
77979;BME280;67169;50.268;8.694;2023-07-22T05:03:58;99791.31;;;10.76;93.47
77979;BME280;67169;50.268;8.694;2023-07-22T05:06:28;99787.00;;;10.72;93.26
77979;BME280;67169;50.268;8.694;2023-07-22T05:08:55;99801.50;;;10.91;93.38
77979;BME280;67169;50.268;8.694;2023-07-22T05:11:21;99802.78;;;11.05;93.64
77979;BME280;67169;50.268;8.694;2023-07-22T05:13:49;99801.50;;;11.15;93.41
77979;BME280;67169;50.268;8.694;2023-07-22T05:16:15;99811.75;;;11.27;93.30
77979;BME280;67169;50.268;8.694;2023-07-22T05:18:42;99810.19;;;11.44;93.35
77979;BME280;67169;50.268;8.694;2023-07-22T05:21:08;99801.75;;;11.53;93.28
77979;BME280;67169;50.268;8.694;2023-07-22T05:23:36;99803.72;;;11.70;93.23
77979;BME280;67169;50.268;8.694;2023-07-22T05:26:03;99783.69;;;11.77;92.97
77979;BME280;67169;50.268;8.694;2023-07-22T05:28:30;99809.38;;;11.85;92.90
77979;BME280;67169;50.268;8.694;2023-07-22T05:30:56;99803.84;;;11.88;93.34
77979;BME280;67169;50.268;8.694;2023-07-22T05:33:23;99817.19;;;11.92;93.66
77979;BME280;67169;50.268;8.694;2023-07-22T05:35:49;99815.03;;;12.00;93.58
77979;BME280;67169;50.268;8.694;2023-07-22T05:38:16;99814.53;;;12.12;93.59
77979;BME280;67169;50.268;8.694;2023-07-22T05:40:44;99813.78;;;12.29;93.83
77979;BME280;67169;50.268;8.694;2023-07-22T05:43:11;99811.41;;;12.42;93.78
77979;BME280;67169;50.268;8.694;2023-07-22T05:45:37;99820.56;;;12.58;93.25
77979;BME280;67169;50.268;8.694;2023-07-22T05:48:04;99814.66;;;12.69;92.98
77979;BME280;67169;50.268;8.694;2023-07-22T05:50:31;99817.31;;;12.70;92.69
77979;BME280;67169;50.268;8.694;2023-07-22T05:52:58;99790.56;;;12.85;92.75
77979;BME280;67169;50.268;8.694;2023-07-22T05:55:25;99791.28;;;12.88;92.66
77979;BME280;67169;50.268;8.694;2023-07-22T05:57:53;99795.94;;;13.03;92.64
77979;BME280;67169;50.268;8.694;2023-07-22T06:00:20;99790.69;;;13.19;92.09
77979;BME280;67169;50.268;8.694;2023-07-22T06:02:47;99755.81;;;13.15;91.85
77979;BME280;67169;50.268;8.694;2023-07-22T06:05:14;99789.19;;;13.33;91.90
77979;BME280;67169;50.268;8.694;2023-07-22T06:07:40;99793.81;;;13.48;91.14
77979;BME280;67169;50.268;8.694;2023-07-22T06:10:07;99790.66;;;13.57;91.07
77979;BME280;67169;50.268;8.694;2023-07-22T06:12:34;99788.28;;;13.68;90.65
77979;BME280;67169;50.268;8.694;2023-07-22T06:15:03;99788.63;;;13.80;90.13
77979;BME280;67169;50.268;8.694;2023-07-22T06:17:29;99779.59;;;13.98;89.84
77979;BME280;67169;50.268;8.694;2023-07-22T06:19:56;99793.66;;;14.22;89.64
77979;BME280;67169;50.268;8.694;2023-07-22T06:22:22;99794.25;;;14.44;89.28
77979;BME280;67169;50.268;8.694;2023-07-22T06:24:49;99791.69;;;14.59;88.22
77979;BME280;67169;50.268;8.694;2023-07-22T06:27:16;99791.69;;;14.59;88.57
77979;BME280;67169;50.268;8.694;2023-07-22T06:29:42;99783.84;;;14.54;89.35
77979;BME280;67169;50.268;8.694;2023-07-22T06:32:10;99790.94;;;14.72;89.74
77979;BME280;67169;50.268;8.694;2023-07-22T06:34:37;99772.97;;;14.71;88.90
77979;BME280;67169;50.268;8.694;2023-07-22T06:37:04;99779.72;;;14.96;88.50
77979;BME280;67169;50.268;8.694;2023-07-22T06:39:31;99785.84;;;15.00;88.48
77979;BME280;67169;50.268;8.694;2023-07-22T06:41:57;99795.75;;;15.01;86.60
77979;BME280;67169;50.268;8.694;2023-07-22T06:44:24;99791.78;;;14.90;86.35
77979;BME280;67169;50.268;8.694;2023-07-22T06:46:51;99797.22;;;14.90;86.69
77979;BME280;67169;50.268;8.694;2023-07-22T06:49:19;99795.03;;;14.97;85.51
77979;BME280;67169;50.268;8.694;2023-07-22T06:51:45;99797.84;;;15.11;84.37
77979;BME280;67169;50.268;8.694;2023-07-22T06:54:12;99798.09;;;15.23;84.80
77979;BME280;67169;50.268;8.694;2023-07-22T06:56:38;99797.41;;;15.35;83.81
77979;BME280;67169;50.268;8.694;2023-07-22T06:59:05;99793.19;;;15.61;83.67
77979;BME280;67169;50.268;8.694;2023-07-22T07:01:31;99800.69;;;15.87;84.10
77979;BME280;67169;50.268;8.694;2023-07-22T07:03:58;99792.06;;;16.11;81.78
77979;BME280;67169;50.268;8.694;2023-07-22T07:06:28;99789.19;;;16.28;80.82
77979;BME280;67169;50.268;8.694;2023-07-22T07:08:54;99793.06;;;16.24;77.58
77979;BME280;67169;50.268;8.694;2023-07-22T07:11:21;99771.34;;;16.24;76.83
77979;BME280;67169;50.268;8.694;2023-07-22T07:13:47;99773.59;;;16.46;77.34
77979;BME280;67169;50.268;8.694;2023-07-22T07:16:21;99764.59;;;16.31;76.21
77979;BME280;67169;50.268;8.694;2023-07-22T07:18:48;99771.56;;;16.50;78.46
77979;BME280;67169;50.268;8.694;2023-07-22T07:21:16;99784.50;;;16.75;76.07
77979;BME280;67169;50.268;8.694;2023-07-22T07:23:44;99783.72;;;16.73;74.50
77979;BME280;67169;50.268;8.694;2023-07-22T07:26:11;99789.53;;;16.67;75.20
77979;BME280;67169;50.268;8.694;2023-07-22T07:28:38;99761.00;;;16.59;75.01
77979;BME280;67169;50.268;8.694;2023-07-22T07:31:05;99768.50;;;16.84;75.97
77979;BME280;67169;50.268;8.694;2023-07-22T07:33:32;99758.31;;;16.88;72.87
77979;BME280;67169;50.268;8.694;2023-07-22T07:35:58;99744.91;;;16.85;73.49
77979;BME280;67169;50.268;8.694;2023-07-22T07:38:25;99739.88;;;16.79;73.67
77979;BME280;67169;50.268;8.694;2023-07-22T07:40:56;99751.63;;;16.94;73.37
77979;BME280;67169;50.268;8.694;2023-07-22T07:43:23;99742.47;;;17.09;70.99
77979;BME280;67169;50.268;8.694;2023-07-22T07:45:50;99725.91;;;17.26;71.20
77979;BME280;67169;50.268;8.694;2023-07-22T07:48:17;99644.25;;;17.55;70.83
77979;BME280;67169;50.268;8.694;2023-07-22T07:50:43;99717.66;;;17.55;68.24
77979;BME280;67169;50.268;8.694;2023-07-22T07:53:10;99728.78;;;17.65;67.96
77979;BME280;67169;50.268;8.694;2023-07-22T07:55:36;99735.78;;;17.69;67.76
77979;BME280;67169;50.268;8.694;2023-07-22T07:58:04;99729.31;;;17.84;66.40
77979;BME280;67169;50.268;8.694;2023-07-22T08:00:31;99734.25;;;18.17;67.08
77979;BME280;67169;50.268;8.694;2023-07-22T08:02:57;99741.66;;;18.54;67.11
77979;BME280;67169;50.268;8.694;2023-07-22T08:05:24;99735.34;;;18.79;64.89
77979;BME280;67169;50.268;8.694;2023-07-22T08:07:51;99728.28;;;18.76;62.42
77979;BME280;67169;50.268;8.694;2023-07-22T08:10:17;99720.75;;;18.67;62.64
77979;BME280;67169;50.268;8.694;2023-07-22T08:12:44;99716.69;;;18.85;63.23
77979;BME280;67169;50.268;8.694;2023-07-22T08:15:12;99716.25;;;18.91;61.73
77979;BME280;67169;50.268;8.694;2023-07-22T08:17:38;99701.09;;;19.00;62.85
77979;BME280;67169;50.268;8.694;2023-07-22T08:20:06;99720.88;;;19.15;61.77
77979;BME280;67169;50.268;8.694;2023-07-22T08:22:33;99716.66;;;19.11;62.11
77979;BME280;67169;50.268;8.694;2023-07-22T08:25:00;99720.81;;;19.04;63.05
77979;BME280;67169;50.268;8.694;2023-07-22T08:27:26;99718.00;;;18.92;64.04
77979;BME280;67169;50.268;8.694;2023-07-22T08:29:53;99713.03;;;18.48;66.17
77979;BME280;67169;50.268;8.694;2023-07-22T08:32:21;99711.06;;;18.63;64.49
77979;BME280;67169;50.268;8.694;2023-07-22T08:34:48;99715.31;;;18.80;62.97
77979;BME280;67169;50.268;8.694;2023-07-22T08:37:14;99702.56;;;18.80;64.32
77979;BME280;67169;50.268;8.694;2023-07-22T08:39:41;99710.84;;;19.15;65.16
77979;BME280;67169;50.268;8.694;2023-07-22T08:42:09;99705.00;;;19.33;62.97
77979;BME280;67169;50.268;8.694;2023-07-22T08:44:38;99664.16;;;18.96;61.56
77979;BME280;67169;50.268;8.694;2023-07-22T08:47:08;99699.69;;;19.31;61.73
77979;BME280;67169;50.268;8.694;2023-07-22T08:49:39;99710.06;;;19.50;61.11
77979;BME280;67169;50.268;8.694;2023-07-22T08:52:07;99691.31;;;19.45;58.96
77979;BME280;67169;50.268;8.694;2023-07-22T08:54:34;99709.75;;;19.18;60.78
77979;BME280;67169;50.268;8.694;2023-07-22T08:57:01;99702.72;;;19.27;60.30
77979;BME280;67169;50.268;8.694;2023-07-22T08:59:28;99705.00;;;19.33;58.66
77979;BME280;67169;50.268;8.694;2023-07-22T09:01:55;99668.31;;;19.37;59.90
77979;BME280;67169;50.268;8.694;2023-07-22T09:04:22;99691.34;;;19.57;58.45
77979;BME280;67169;50.268;8.694;2023-07-22T09:06:51;99681.31;;;19.57;57.73
77979;BME280;67169;50.268;8.694;2023-07-22T09:09:19;99692.06;;;19.48;59.12
77979;BME280;67169;50.268;8.694;2023-07-22T09:11:47;99650.69;;;19.30;59.36
77979;BME280;67169;50.268;8.694;2023-07-22T09:14:15;99683.59;;;19.39;59.74
77979;BME280;67169;50.268;8.694;2023-07-22T09:16:43;99687.84;;;19.67;59.96
77979;BME280;67169;50.268;8.694;2023-07-22T09:19:11;99684.81;;;19.59;59.67
77979;BME280;67169;50.268;8.694;2023-07-22T09:21:38;99687.75;;;19.80;59.24
77979;BME280;67169;50.268;8.694;2023-07-22T09:24:22;99702.19;;;19.94;58.51
77979;BME280;67169;50.268;8.694;2023-07-22T09:26:49;99685.41;;;19.76;57.92
77979;BME280;67169;50.268;8.694;2023-07-22T09:29:16;99684.19;;;19.91;57.99
77979;BME280;67169;50.268;8.694;2023-07-22T09:31:50;99668.72;;;20.03;54.25
77979;BME280;67169;50.268;8.694;2023-07-22T09:34:17;99683.66;;;20.44;54.95
77979;BME280;67169;50.268;8.694;2023-07-22T09:36:50;99687.56;;;20.63;53.58
77979;BME280;67169;50.268;8.694;2023-07-22T09:39:16;99679.97;;;20.56;53.25
77979;BME280;67169;50.268;8.694;2023-07-22T09:41:45;99674.63;;;20.99;52.88
77979;BME280;67169;50.268;8.694;2023-07-22T09:44:11;99681.06;;;20.98;51.31
77979;BME280;67169;50.268;8.694;2023-07-22T09:46:39;99677.38;;;21.31;49.54
77979;BME280;67169;50.268;8.694;2023-07-22T09:49:06;99677.03;;;21.36;50.88
77979;BME280;67169;50.268;8.694;2023-07-22T09:51:35;99669.78;;;21.78;49.43
77979;BME280;67169;50.268;8.694;2023-07-22T09:54:03;99668.34;;;22.16;49.68
77979;BME280;67169;50.268;8.694;2023-07-22T09:56:30;99628.16;;;21.64;47.46
77979;BME280;67169;50.268;8.694;2023-07-22T09:58:59;99648.75;;;22.00;46.97
77979;BME280;67169;50.268;8.694;2023-07-22T10:01:26;99655.69;;;22.04;46.48
77979;BME280;67169;50.268;8.694;2023-07-22T10:03:54;99660.75;;;22.09;47.22
77979;BME280;67169;50.268;8.694;2023-07-22T10:06:24;99649.03;;;22.18;46.16
77979;BME280;67169;50.268;8.694;2023-07-22T10:08:50;99641.53;;;22.20;46.71
77979;BME280;67169;50.268;8.694;2023-07-22T10:11:17;99644.53;;;21.75;46.75
77979;BME280;67169;50.268;8.694;2023-07-22T10:13:45;99650.47;;;21.80;46.35
77979;BME280;67169;50.268;8.694;2023-07-22T10:16:13;99650.75;;;21.45;46.54
77979;BME280;67169;50.268;8.694;2023-07-22T10:18:40;99649.19;;;21.63;47.31
77979;BME280;67169;50.268;8.694;2023-07-22T10:21:10;99653.38;;;22.20;46.26
77979;BME280;67169;50.268;8.694;2023-07-22T10:23:38;99659.34;;;22.66;45.56
77979;BME280;67169;50.268;8.694;2023-07-22T10:26:05;99659.50;;;23.05;43.10
77979;BME280;67169;50.268;8.694;2023-07-22T10:28:32;99646.84;;;23.13;42.27
77979;BME280;67169;50.268;8.694;2023-07-22T10:30:59;99638.59;;;23.33;41.93
77979;BME280;67169;50.268;8.694;2023-07-22T10:33:27;99641.22;;;23.44;40.58
77979;BME280;67169;50.268;8.694;2023-07-22T10:36:03;99643.72;;;23.86;40.03
77979;BME280;67169;50.268;8.694;2023-07-22T10:38:31;99631.28;;;23.82;39.96
77979;BME280;67169;50.268;8.694;2023-07-22T10:40:58;99610.34;;;23.71;40.43
77979;BME280;67169;50.268;8.694;2023-07-22T10:43:25;99616.25;;;23.86;40.18
77979;BME280;67169;50.268;8.694;2023-07-22T10:45:53;99615.94;;;23.31;40.67
77979;BME280;67169;50.268;8.694;2023-07-22T10:48:20;99606.00;;;23.30;40.95
77979;BME280;67169;50.268;8.694;2023-07-22T10:50:50;99595.72;;;22.62;41.94
77979;BME280;67169;50.268;8.694;2023-07-22T10:53:28;99597.34;;;22.34;42.90
77979;BME280;67169;50.268;8.694;2023-07-22T10:56:11;99588.59;;;22.19;43.88
77979;BME280;67169;50.268;8.694;2023-07-22T10:58:58;99606.63;;;22.52;42.77
77979;BME280;67169;50.268;8.694;2023-07-22T11:01:31;99604.16;;;22.90;42.76
77979;BME280;67169;50.268;8.694;2023-07-22T11:04:12;99599.75;;;23.28;41.38
77979;BME280;67169;50.268;8.694;2023-07-22T11:06:53;99602.47;;;23.08;41.23
77979;BME280;67169;50.268;8.694;2023-07-22T11:09:38;99601.06;;;23.24;41.19
77979;BME280;67169;50.268;8.694;2023-07-22T11:12:08;99646.16;;;23.89;38.51
77979;BME280;67169;50.268;8.694;2023-07-22T11:14:38;99666.53;;;24.62;37.16
77979;BME280;67169;50.268;8.694;2023-07-22T11:17:07;99645.81;;;24.68;35.83
77979;BME280;67169;50.268;8.694;2023-07-22T11:19:34;99619.84;;;24.43;36.59
77979;BME280;67169;50.268;8.694;2023-07-22T11:22:03;99616.38;;;24.51;36.28
77979;BME280;67169;50.268;8.694;2023-07-22T11:24:34;99616.56;;;24.30;35.84
77979;BME280;67169;50.268;8.694;2023-07-22T11:27:03;99615.66;;;23.92;36.38
77979;BME280;67169;50.268;8.694;2023-07-22T11:29:31;99610.16;;;23.24;36.88
77979;BME280;67169;50.268;8.694;2023-07-22T11:31:58;99604.94;;;23.50;37.51
77979;BME280;67169;50.268;8.694;2023-07-22T11:34:24;99609.00;;;23.65;36.93
77979;BME280;67169;50.268;8.694;2023-07-22T11:36:52;99600.91;;;23.25;37.96
77979;BME280;67169;50.268;8.694;2023-07-22T11:39:22;99588.41;;;22.82;38.97
77979;BME280;67169;50.268;8.694;2023-07-22T11:41:50;99593.03;;;22.82;39.27
77979;BME280;67169;50.268;8.694;2023-07-22T11:44:18;99599.13;;;22.95;38.75
77979;BME280;67169;50.268;8.694;2023-07-22T11:46:51;99590.41;;;22.80;38.09
77979;BME280;67169;50.268;8.694;2023-07-22T11:49:23;99592.72;;;22.75;39.06
77979;BME280;67169;50.268;8.694;2023-07-22T11:51:50;99584.19;;;22.68;39.39
77979;BME280;67169;50.268;8.694;2023-07-22T11:54:16;99583.84;;;22.92;39.56
77979;BME280;67169;50.268;8.694;2023-07-22T11:56:45;99597.00;;;23.66;39.22
77979;BME280;67169;50.268;8.694;2023-07-22T11:59:12;99586.78;;;23.68;39.72
77979;BME280;67169;50.268;8.694;2023-07-22T12:01:38;99572.75;;;23.13;41.14
77979;BME280;67169;50.268;8.694;2023-07-22T12:04:10;99569.69;;;22.97;40.65
77979;BME280;67169;50.268;8.694;2023-07-22T12:06:36;99575.78;;;23.30;40.72
77979;BME280;67169;50.268;8.694;2023-07-22T12:09:03;99583.16;;;23.68;39.35
77979;BME280;67169;50.268;8.694;2023-07-22T12:11:32;99580.31;;;24.16;38.39
77979;BME280;67169;50.268;8.694;2023-07-22T12:14:11;99573.44;;;24.40;36.86
77979;BME280;67169;50.268;8.694;2023-07-22T12:16:39;99572.81;;;24.46;37.00
77979;BME280;67169;50.268;8.694;2023-07-22T12:19:07;99570.38;;;24.43;37.61
77979;BME280;67169;50.268;8.694;2023-07-22T12:21:34;99566.63;;;24.44;36.34
77979;BME280;67169;50.268;8.694;2023-07-22T12:24:01;99552.84;;;24.07;36.49
77979;BME280;67169;50.268;8.694;2023-07-22T12:26:29;99532.94;;;23.95;35.97
77979;BME280;67169;50.268;8.694;2023-07-22T12:28:55;99553.16;;;24.04;36.36
77979;BME280;67169;50.268;8.694;2023-07-22T12:31:24;99548.44;;;24.24;36.29
77979;BME280;67169;50.268;8.694;2023-07-22T12:33:50;99553.59;;;24.36;37.30
77979;BME280;67169;50.268;8.694;2023-07-22T12:36:17;99551.44;;;24.40;36.04
77979;BME280;67169;50.268;8.694;2023-07-22T12:38:43;99542.13;;;24.13;36.30
77979;BME280;67169;50.268;8.694;2023-07-22T12:41:10;99555.50;;;24.63;36.27
77979;BME280;67169;50.268;8.694;2023-07-22T12:43:36;99561.09;;;25.71;35.12
77979;BME280;67169;50.268;8.694;2023-07-22T12:46:04;99555.31;;;26.08;33.81
77979;BME280;67169;50.268;8.694;2023-07-22T12:48:32;99549.66;;;24.94;35.67
77979;BME280;67169;50.268;8.694;2023-07-22T12:50:59;99551.25;;;24.97;35.66
77979;BME280;67169;50.268;8.694;2023-07-22T12:53:26;99508.66;;;24.55;35.11
77979;BME280;67169;50.268;8.694;2023-07-22T12:55:52;99540.84;;;25.08;35.34
77979;BME280;67169;50.268;8.694;2023-07-22T12:58:19;99542.03;;;25.16;35.73
77979;BME280;67169;50.268;8.694;2023-07-22T13:00:46;99526.44;;;25.24;34.50
77979;BME280;67169;50.268;8.694;2023-07-22T13:03:12;99512.91;;;25.13;35.13
77979;BME280;67169;50.268;8.694;2023-07-22T13:05:40;99488.88;;;24.70;35.51